Time;durP1;ratioP1;P1;durP2;ratioP2;P2;SDS_P1;SDS_P2;PMS_P1;PMS_P2;Temp;Humidity;BMP_temperature;BMP_pressure;BME280_temperature;BME280_humidity;BME280_pressure;Samples;Min_cycle;Max_cycle;Signal;HPM_P1;HPM_P2
2022/01/16 00:01:06;;;;;;;27.27;19.00;;;6.70;99.90;;;;;;5076927;28;20199;-93
2022/01/16 00:06:26;;;;;;;28.33;20.03;;;6.60;99.90;;;;;;5074298;28;20256;-95
2022/01/16 00:08:57;;;;;;;32.37;20.70;;;6.60;99.90;;;;;;5072480;28;20232;-94
2022/01/16 00:11:30;;;;;;;30.03;20.20;;;6.60;99.90;;;;;;5070437;28;20188;-94
2022/01/16 00:14:02;;;;;;;29.03;20.33;;;6.60;99.90;;;;;;5070169;28;20207;-93
2022/01/16 00:16:33;;;;;;;30.67;20.27;;;6.60;99.90;;;;;;5069198;28;20204;-93
2022/01/16 00:19:05;;;;;;;32.17;20.60;;;6.60;99.90;;;;;;5061732;28;20752;-94
2022/01/16 00:21:41;;;;;;;44.80;20.37;;;6.70;99.90;;;;;;5059202;28;20279;-93
2022/01/16 00:24:15;;;;;;;35.80;22.37;;;6.70;99.90;;;;;;5068590;28;20279;-93
2022/01/16 00:26:49;;;;;;;31.67;21.33;;;6.60;99.90;;;;;;5068783;28;20556;-93
2022/01/16 00:29:20;;;;;;;59.13;23.10;;;6.70;99.90;;;;;;5069154;28;20231;-93
2022/01/16 00:31:51;;;;;;;95.40;23.07;;;6.70;99.90;;;;;;5068167;28;20215;-93
2022/01/16 00:34:22;;;;;;;50.63;21.70;;;6.70;99.90;;;;;;5068880;28;20216;-93
2022/01/16 00:36:59;;;;;;;89.00;22.23;;;6.60;99.90;;;;;;5071717;28;20200;-91
2022/01/16 00:39:43;;;;;;;108.77;21.80;;;6.60;99.90;;;;;;5071715;28;20195;-94
2022/01/16 00:42:16;;;;;;;65.60;21.93;;;6.50;99.90;;;;;;5070745;28;20239;-94
2022/01/16 00:44:48;;;;;;;104.73;23.97;;;6.60;99.90;;;;;;5064948;28;20204;-94
2022/01/16 00:47:19;;;;;;;65.43;22.47;;;6.50;99.90;;;;;;5068681;28;20211;-93
2022/01/16 00:49:51;;;;;;;158.73;25.40;;;6.50;99.90;;;;;;5054308;28;20220;-94
2022/01/16 00:52:22;;;;;;;66.37;23.17;;;6.50;99.90;;;;;;5047229;28;20243;-93
2022/01/16 00:54:54;;;;;;;56.17;21.77;;;6.40;99.90;;;;;;5043586;28;20293;-94
2022/01/16 00:57:27;;;;;;;51.33;22.77;;;6.40;99.90;;;;;;5048707;28;20193;-93
2022/01/16 00:59:59;;;;;;;148.60;27.10;;;6.50;99.90;;;;;;5048409;28;20579;-94
2022/01/16 01:02:30;;;;;;;49.17;25.37;;;6.50;99.90;;;;;;5049260;28;20249;-94
2022/01/16 01:05:01;;;;;;;147.30;26.30;;;6.40;99.90;;;;;;5050744;28;20209;-93
2022/01/16 01:07:33;;;;;;;139.77;26.07;;;6.40;99.90;;;;;;5045197;28;20284;-93
2022/01/16 01:10:30;;;;;;;51.17;23.73;;;6.40;99.90;;;;;;5047486;28;20303;-92
2022/01/16 01:13:10;;;;;;;134.30;24.57;;;6.40;99.90;;;;;;5048138;28;20212;-92
2022/01/16 01:15:47;;;;;;;267.80;29.83;;;6.40;99.90;;;;;;5054756;28;20259;-92
2022/01/16 01:18:19;;;;;;;121.73;26.33;;;6.50;99.90;;;;;;5064132;28;20230;-92
2022/01/16 01:20:51;;;;;;;99.47;23.50;;;6.50;99.90;;;;;;5072933;28;20203;-92
2022/01/16 01:23:23;;;;;;;63.37;22.43;;;6.50;99.90;;;;;;5069612;28;20268;-93
2022/01/16 01:25:55;;;;;;;61.53;23.40;;;6.50;99.90;;;;;;5066185;28;20273;-93
2022/01/16 01:28:29;;;;;;;124.77;22.90;;;6.50;99.90;;;;;;5070782;28;20228;-93
2022/01/16 01:31:00;;;;;;;89.70;21.87;;;6.50;99.90;;;;;;5071484;28;20207;-93
2022/01/16 01:33:31;;;;;;;106.17;23.00;;;6.60;99.90;;;;;;5059682;28;20689;-93
2022/01/16 01:36:03;;;;;;;180.37;24.30;;;6.60;99.90;;;;;;5064314;28;20215;-93
2022/01/16 01:38:34;;;;;;;133.97;24.03;;;6.60;99.90;;;;;;5057869;28;20204;-94
2022/01/16 01:41:05;;;;;;;50.30;22.57;;;6.60;99.90;;;;;;5064084;28;20287;-94
2022/01/16 01:52:00;;;;;;;109.00;24.73;;;6.60;99.90;;;;;;5058266;28;20235;-92
2022/01/16 01:54:32;;;;;;;88.40;22.80;;;6.60;99.90;;;;;;5058928;28;20240;-93
2022/01/16 01:57:03;;;;;;;97.83;23.93;;;6.60;99.90;;;;;;5070935;28;20272;-93
2022/01/16 01:59:39;;;;;;;65.53;21.33;;;6.60;99.90;;;;;;5075634;28;20215;-93
2022/01/16 02:02:11;;;;;;;47.63;19.87;;;6.60;99.90;;;;;;5071701;28;20223;-93
2022/01/16 02:04:42;;;;;;;50.13;20.30;;;6.60;99.90;;;;;;5072478;28;20235;-93
2022/01/16 02:07:15;;;;;;;191.50;23.27;;;6.60;99.90;;;;;;5068164;28;20264;-93
2022/01/16 02:09:46;;;;;;;95.13;19.93;;;6.70;99.90;;;;;;5068248;28;20290;-93
2022/01/16 02:12:18;;;;;;;88.33;17.17;;;6.70;99.90;;;;;;5070784;28;20609;-93
2022/01/16 02:15:00;;;;;;;120.33;16.77;;;6.60;99.90;;;;;;5072494;28;20528;-91
2022/01/16 02:29:05;;;;;;;63.57;15.17;;;6.40;99.90;;;;;;5075354;28;20251;-92
2022/01/16 02:31:37;;;;;;;136.03;17.27;;;6.30;99.90;;;;;;5077098;28;20207;-89
2022/01/16 02:36:59;;;;;;;287.53;24.13;;;6.30;99.90;;;;;;5077044;28;20207;-92
2022/01/16 02:42:16;;;;;;;122.83;15.80;;;6.30;99.90;;;;;;5971369;22;20271;-93
2022/01/16 02:45:01;;;;;;;58.23;13.63;;;6.20;99.90;;;;;;5071925;28;20210;-93
2022/01/16 02:47:33;;;;;;;62.43;15.10;;;6.20;99.90;;;;;;5070819;28;20232;-93
2022/01/16 02:52:59;;;;;;;218.87;20.17;;;6.20;99.90;;;;;;5107996;22;20250;-93
2022/01/16 02:55:32;;;;;;;112.83;16.57;;;6.20;99.90;;;;;;5061613;28;20204;-93
2022/01/16 02:58:04;;;;;;;333.97;21.63;;;6.20;99.90;;;;;;5041318;28;20232;-93
2022/01/16 03:00:37;;;;;;;398.20;23.03;;;6.10;99.90;;;;;;5051823;28;20240;-93
2022/01/16 03:03:09;;;;;;;237.30;21.47;;;6.00;99.90;;;;;;5049617;28;20212;-94
2022/01/16 03:05:41;;;;;;;227.63;18.30;;;5.90;99.90;;;;;;5052368;28;20235;-94
2022/01/16 03:08:12;;;;;;;253.10;18.47;;;5.90;99.90;;;;;;5059156;28;20204;-94
2022/01/16 03:13:33;;;;;;;370.27;21.73;;;5.70;99.90;;;;;;5132405;22;20224;-92
2022/01/16 03:16:05;;;;;;;295.83;20.00;;;5.70;99.90;;;;;;5144672;22;20231;-92
2022/01/16 03:24:21;;;;;;;199.40;23.13;;;5.70;99.90;;;;;;5041381;28;20296;-93
2022/01/16 03:26:55;;;;;;;245.50;41.67;;;5.70;99.90;;;;;;5065066;28;20204;-93
2022/01/16 03:29:27;;;;;;;153.50;20.07;;;5.70;99.90;;;;;;5063264;28;20231;-93
2022/01/16 03:31:59;;;;;;;173.63;17.10;;;5.70;99.90;;;;;;5061700;28;20208;-93
2022/01/16 03:34:31;;;;;;;154.97;16.03;;;5.70;99.90;;;;;;5067291;28;20204;-93
2022/01/16 03:37:03;;;;;;;108.30;15.63;;;5.70;99.90;;;;;;5065203;28;20209;-93
2022/01/16 03:39:34;;;;;;;213.53;18.50;;;5.70;99.90;;;;;;5062155;28;20215;-92
2022/01/16 03:42:11;;;;;;;249.03;22.63;;;5.70;99.90;;;;;;5065829;28;20208;-94
2022/01/16 03:44:42;;;;;;;303.23;19.50;;;5.70;99.90;;;;;;5069418;28;20207;-94
2022/01/16 03:47:15;;;;;;;305.97;36.30;;;5.70;99.90;;;;;;5066029;28;20208;-94
2022/01/16 03:49:46;;;;;;;248.33;29.07;;;5.60;99.90;;;;;;5068403;28;20223;-93
2022/01/16 03:52:17;;;;;;;223.77;30.73;;;5.60;99.90;;;;;;5060156;28;20204;-92
2022/01/16 03:54:49;;;;;;;182.77;22.93;;;5.70;99.90;;;;;;5065479;28;20232;-90
2022/01/16 03:57:41;;;;;;;219.20;17.83;;;5.70;99.90;;;;;;5069263;28;20742;-94
2022/01/16 04:00:19;;;;;;;162.87;21.60;;;5.60;99.90;;;;;;5064396;28;20597;-94
2022/01/16 04:02:50;;;;;;;173.23;16.93;;;5.60;99.90;;;;;;5055239;28;20211;-93
2022/01/16 04:05:21;;;;;;;155.50;16.23;;;5.60;99.90;;;;;;5055002;28;20211;-94
2022/01/16 04:07:53;;;;;;;96.07;21.30;;;5.60;99.90;;;;;;5054329;28;20741;-94
2022/01/16 04:10:25;;;;;;;128.00;15.83;;;5.60;99.90;;;;;;5054827;28;20260;-94
2022/01/16 04:12:59;;;;;;;175.23;21.33;;;5.60;99.90;;;;;;5055634;28;20201;-94
2022/01/16 04:15:35;;;;;;;114.80;15.17;;;5.60;99.90;;;;;;5061664;28;20255;-93
2022/01/16 04:18:09;;;;;;;163.77;17.37;;;5.60;99.90;;;;;;5060372;28;20272;-93
2022/01/16 04:20:40;;;;;;;104.10;16.80;;;5.60;99.90;;;;;;5062405;28;20245;-93
2022/01/16 04:23:11;;;;;;;80.97;20.63;;;5.60;99.90;;;;;;5070654;28;20200;-93
2022/01/16 04:25:42;;;;;;;90.80;13.17;;;5.60;99.90;;;;;;5063506;28;20209;-93
2022/01/16 04:28:22;;;;;;;86.00;14.67;;;5.60;99.90;;;;;;5055366;28;20658;-93
2022/01/16 04:30:53;;;;;;;90.33;13.20;;;5.60;99.90;;;;;;5055394;28;20311;-92
2022/01/16 04:33:26;;;;;;;80.53;15.30;;;5.60;99.90;;;;;;5063923;28;20235;-93
2022/01/16 04:35:57;;;;;;;49.90;12.00;;;5.60;99.90;;;;;;5076945;28;20192;-93
2022/01/16 04:38:28;;;;;;;54.87;11.67;;;5.60;99.90;;;;;;5075622;28;20201;-92
2022/01/16 04:43:52;;;;;;;68.67;12.07;;;5.50;99.90;;;;;;5061319;28;20254;-93
2022/01/16 04:46:24;;;;;;;84.47;13.67;;;5.50;99.90;;;;;;5053872;28;20249;-93
2022/01/16 04:48:56;;;;;;;91.70;15.87;;;5.50;99.90;;;;;;5066399;28;20208;-94
2022/01/16 04:51:29;;;;;;;85.63;12.33;;;5.50;99.90;;;;;;5055664;28;20311;-93
2022/01/16 04:54:01;;;;;;;49.20;11.70;;;5.50;99.90;;;;;;5055366;28;20208;-94
2022/01/16 04:56:32;;;;;;;101.37;16.43;;;5.50;99.90;;;;;;5053893;28;20215;-94
2022/01/16 04:59:05;;;;;;;81.73;14.50;;;5.50;99.90;;;;;;5054220;28;20254;-94
2022/01/16 05:01:36;;;;;;;88.73;14.37;;;5.50;99.90;;;;;;5054662;28;20335;-93
2022/01/16 05:04:10;;;;;;;156.10;16.07;;;5.50;99.90;;;;;;5055186;28;20294;-94
2022/01/16 05:06:44;;;;;;;92.73;17.03;;;5.50;99.90;;;;;;5053396;28;20196;-93
2022/01/16 05:09:16;;;;;;;127.70;15.67;;;5.50;99.90;;;;;;5043225;28;20211;-94
2022/01/16 05:11:53;;;;;;;112.47;16.40;;;5.50;99.90;;;;;;5047214;28;20216;-94
2022/01/16 05:17:16;;;;;;;98.40;13.70;;;5.50;99.90;;;;;;5055406;28;20232;-93
2022/01/16 05:19:48;;;;;;;118.63;14.20;;;5.60;99.90;;;;;;5056816;28;20262;-93
2022/01/16 05:22:19;;;;;;;68.27;13.40;;;5.60;99.90;;;;;;5054591;28;20201;-93
2022/01/16 05:24:50;;;;;;;60.53;12.33;;;5.60;99.90;;;;;;5057377;28;20208;-93
2022/01/16 05:27:22;;;;;;;43.50;12.73;;;5.60;99.90;;;;;;5053091;28;20649;-93
2022/01/16 05:29:56;;;;;;;46.37;12.20;;;5.60;99.90;;;;;;5053235;28;20259;-94
2022/01/16 05:32:28;;;;;;;20.57;11.30;;;5.60;99.90;;;;;;5054403;28;20548;-93
2022/01/16 05:34:59;;;;;;;33.97;11.90;;;5.60;99.90;;;;;;5053324;28;20201;-92
2022/01/16 05:37:31;;;;;;;68.43;13.47;;;5.60;99.90;;;;;;5059156;28;20215;-92
2022/01/16 05:40:02;;;;;;;45.47;12.40;;;5.60;99.90;;;;;;5060291;28;20557;-92
2022/01/16 05:42:33;;;;;;;26.47;12.33;;;5.60;99.90;;;;;;5054215;28;20204;-93
2022/01/16 05:45:07;;;;;;;20.43;12.00;;;5.60;99.90;;;;;;5058989;28;20270;-94
2022/01/16 05:47:38;;;;;;;26.83;12.63;;;5.60;99.90;;;;;;5057048;28;20235;-92
2022/01/16 05:50:09;;;;;;;26.10;13.20;;;5.50;99.90;;;;;;5058161;28;20224;-92
2022/01/16 05:52:47;;;;;;;27.30;10.93;;;5.50;99.90;;;;;;5056773;28;20677;-92
2022/01/16 05:55:20;;;;;;;41.63;11.60;;;5.60;99.90;;;;;;5058042;28;20208;-91
2022/01/16 05:57:51;;;;;;;33.27;12.97;;;5.60;99.90;;;;;;5057038;28;20200;-92
2022/01/16 06:00:25;;;;;;;45.20;11.77;;;5.60;99.90;;;;;;5055907;28;20244;-93
2022/01/16 06:02:56;;;;;;;30.70;10.23;;;5.60;99.90;;;;;;5057578;28;20235;-93
2022/01/16 06:05:27;;;;;;;34.50;12.30;;;5.50;99.90;;;;;;5057010;28;20345;-93
2022/01/16 06:08:00;;;;;;;29.37;10.93;;;5.50;99.90;;;;;;5056639;28;20212;-93
2022/01/16 06:10:31;;;;;;;42.03;12.03;;;5.60;99.90;;;;;;5056917;28;20236;-93
2022/01/16 06:13:04;;;;;;;31.97;11.53;;;5.50;99.90;;;;;;5059430;28;20208;-93
2022/01/16 06:15:40;;;;;;;47.57;13.30;;;5.50;99.90;;;;;;5059598;28;20231;-93
2022/01/16 06:18:12;;;;;;;40.93;13.07;;;5.60;99.90;;;;;;5063706;28;20207;-93
2022/01/16 06:20:43;;;;;;;65.53;13.63;;;5.50;99.90;;;;;;5057585;28;20208;-93
2022/01/16 06:23:16;;;;;;;39.93;11.63;;;5.60;99.90;;;;;;5057098;28;20201;-93
2022/01/16 06:25:54;;;;;;;39.03;13.13;;;5.60;99.90;;;;;;5056860;28;20208;-93
2022/01/16 06:28:25;;;;;;;70.67;13.83;;;5.60;99.90;;;;;;5059574;28;20204;-93
2022/01/16 06:30:59;;;;;;;44.27;13.17;;;5.60;99.90;;;;;;5056719;28;20236;-93
2022/01/16 06:33:31;;;;;;;47.73;12.33;;;5.50;99.90;;;;;;5056510;28;20208;-92
2022/01/16 06:36:02;;;;;;;111.93;14.13;;;5.60;99.90;;;;;;5058887;28;20306;-93
2022/01/16 06:38:34;;;;;;;41.47;10.63;;;5.60;99.90;;;;;;5055398;28;20223;-93
2022/01/16 06:41:06;;;;;;;84.23;12.20;;;5.50;99.90;;;;;;5057232;28;20208;-92
2022/01/16 06:43:37;;;;;;;64.77;12.53;;;5.50;99.90;;;;;;5061455;28;20262;-92
2022/01/16 06:46:10;;;;;;;83.90;14.10;;;5.50;99.90;;;;;;5068477;28;20212;-91
2022/01/16 06:48:42;;;;;;;121.03;13.40;;;5.50;99.90;;;;;;5057741;28;20208;-92
2022/01/16 06:51:13;;;;;;;80.20;11.97;;;5.50;99.90;;;;;;5060126;28;20258;-93
2022/01/16 06:53:44;;;;;;;96.23;12.47;;;5.50;99.90;;;;;;5061106;28;20194;-93
2022/01/16 06:56:16;;;;;;;83.73;14.97;;;5.50;99.90;;;;;;5075722;28;20219;-91
2022/01/16 06:58:46;;;;;;;47.77;14.13;;;5.50;99.90;;;;;;5078208;28;20189;-94
2022/01/16 07:01:20;;;;;;;71.27;14.87;;;5.50;99.90;;;;;;5069679;28;20219;-93
2022/01/16 07:03:51;;;;;;;79.53;16.00;;;5.60;99.90;;;;;;5070400;28;20208;-93
2022/01/16 07:06:22;;;;;;;92.90;14.33;;;5.50;99.90;;;;;;5064360;28;20206;-94
2022/01/16 07:08:53;;;;;;;104.50;16.30;;;5.50;99.90;;;;;;5056667;28;20278;-93
2022/01/16 07:11:24;;;;;;;50.77;13.53;;;5.50;99.90;;;;;;5055552;28;20231;-92
2022/01/16 07:13:56;;;;;;;35.20;12.90;;;5.50;99.90;;;;;;5056847;28;20211;-92
2022/01/16 07:16:29;;;;;;;35.27;10.40;;;5.50;99.90;;;;;;5055583;28;20208;-93
2022/01/16 07:19:00;;;;;;;95.90;11.63;;;5.50;99.90;;;;;;5056176;28;20266;-94
2022/01/16 07:21:31;;;;;;;56.37;11.40;;;5.50;99.90;;;;;;5056403;28;20729;-93
2022/01/16 07:24:02;;;;;;;102.63;12.73;;;5.50;99.90;;;;;;5056261;28;20242;-93
2022/01/16 07:26:34;;;;;;;57.07;10.73;;;5.50;99.90;;;;;;5055898;28;20285;-94
2022/01/16 07:29:05;;;;;;;70.23;11.10;;;5.40;99.90;;;;;;5057645;28;20223;-93
2022/01/16 07:31:40;;;;;;;55.10;10.73;;;5.40;99.90;;;;;;5060458;28;20244;-93
2022/01/16 07:34:12;;;;;;;51.03;10.97;;;5.40;99.90;;;;;;5060803;28;20311;-92
2022/01/16 07:36:42;;;;;;;44.53;10.17;;;5.40;99.90;;;;;;5059407;28;22249;-90
2022/01/16 07:39:14;;;;;;;32.20;9.80;;;5.40;99.90;;;;;;5059069;28;20211;-94
2022/01/16 07:41:45;;;;;;;131.27;12.43;;;5.40;99.90;;;;;;5056127;28;20212;-93
2022/01/16 07:44:16;;;;;;;49.57;10.50;;;5.40;99.90;;;;;;5056390;28;20215;-93
2022/01/16 07:46:49;;;;;;;138.33;13.57;;;5.40;99.90;;;;;;5055173;28;20204;-93
2022/01/16 07:49:20;;;;;;;47.83;10.43;;;5.30;99.90;;;;;;5055626;28;20212;-93
2022/01/16 07:51:52;;;;;;;102.50;12.23;;;5.30;99.90;;;;;;5055144;28;20228;-93
2022/01/16 07:54:23;;;;;;;43.13;9.17;;;5.30;99.90;;;;;;5054708;28;20620;-93
2022/01/16 07:56:54;;;;;;;109.67;12.23;;;5.30;99.90;;;;;;5054449;28;20200;-93
2022/01/16 07:59:25;;;;;;;95.47;11.20;;;5.40;99.90;;;;;;5055339;28;20579;-93
2022/01/16 08:01:58;;;;;;;63.37;11.70;;;5.40;99.90;;;;;;5060757;28;20219;-92
2022/01/16 08:04:30;;;;;;;92.93;11.10;;;5.40;99.90;;;;;;5057272;28;20210;-94
2022/01/16 08:07:03;;;;;;;244.27;16.87;;;5.40;99.90;;;;;;5057118;28;20247;-93
2022/01/16 08:09:34;;;;;;;318.30;20.07;;;5.30;99.90;;;;;;5063326;28;20216;-92
2022/01/16 08:12:05;;;;;;;127.10;13.00;;;5.30;99.90;;;;;;5055996;28;20632;-93
2022/01/16 08:14:37;;;;;;;194.73;15.83;;;5.30;99.90;;;;;;5055441;28;20231;-93
2022/01/16 08:17:10;;;;;;;127.00;13.03;;;5.30;99.90;;;;;;5054467;28;20212;-92
2022/01/16 08:19:42;;;;;;;130.13;12.53;;;5.30;99.90;;;;;;5053940;28;20215;-93
2022/01/16 08:22:13;;;;;;;246.57;17.10;;;5.30;99.90;;;;;;5054002;28;20291;-93
2022/01/16 08:24:45;;;;;;;254.63;16.97;;;5.30;99.90;;;;;;5053735;28;20244;-93
2022/01/16 08:27:18;;;;;;;141.27;12.30;;;5.30;99.90;;;;;;5054696;28;20216;-93
2022/01/16 08:29:49;;;;;;;147.30;15.80;;;5.30;99.90;;;;;;5054657;28;20251;-92
2022/01/16 08:32:22;;;;;;;290.30;18.63;;;5.30;99.90;;;;;;5054621;28;20228;-93
2022/01/16 08:34:52;;;;;;;309.23;18.47;;;5.30;99.90;;;;;;5054967;28;20254;-93
2022/01/16 08:40:11;;;;;;;149.87;13.07;;;5.30;99.90;;;;;;5034437;28;20255;-93
2022/01/16 08:42:43;;;;;;;159.50;14.43;;;5.30;99.90;;;;;;5035136;28;20201;-93
2022/01/16 08:45:15;;;;;;;169.00;15.00;;;5.30;99.90;;;;;;5039688;28;20231;-93
2022/01/16 08:47:48;;;;;;;139.27;11.77;;;5.30;99.90;;;;;;5054748;28;20204;-92
2022/01/16 08:50:19;;;;;;;120.17;12.77;;;5.30;99.90;;;;;;5054514;28;20253;-92
2022/01/16 08:52:50;;;;;;;125.57;13.73;;;5.30;99.90;;;;;;5054588;28;20232;-93
2022/01/16 08:55:21;;;;;;;105.73;10.77;;;5.30;99.90;;;;;;5055310;28;20630;-93
2022/01/16 08:57:52;;;;;;;87.23;10.33;;;5.20;99.90;;;;;;5054589;28;20196;-93
2022/01/16 09:00:23;;;;;;;70.43;9.23;;;5.20;99.90;;;;;;5054641;28;20232;-92
2022/01/16 09:02:57;;;;;;;99.53;10.97;;;5.30;99.90;;;;;;5055614;28;20208;-92
2022/01/16 09:05:29;;;;;;;114.00;11.73;;;5.30;99.90;;;;;;5055367;28;20210;-92
2022/01/16 09:08:00;;;;;;;73.07;11.03;;;5.30;99.90;;;;;;5054994;28;20219;-93
2022/01/16 09:10:32;;;;;;;169.27;12.20;;;5.30;99.90;;;;;;5056685;28;20219;-93
2022/01/16 09:13:03;;;;;;;328.33;18.93;;;5.30;99.90;;;;;;5076162;28;20216;-92
2022/01/16 09:15:34;;;;;;;110.43;10.80;;;5.30;99.90;;;;;;5075045;28;20256;-91
2022/01/16 09:18:07;;;;;;;71.10;10.10;;;5.30;99.90;;;;;;5066369;28;20208;-93
2022/01/16 09:20:39;;;;;;;203.00;14.10;;;5.20;99.90;;;;;;5059748;28;20259;-93
2022/01/16 09:23:11;;;;;;;196.90;14.10;;;5.20;99.90;;;;;;5058930;28;20240;-93
2022/01/16 09:25:43;;;;;;;139.10;12.60;;;5.20;99.90;;;;;;5063972;28;20668;-93
2022/01/16 09:28:16;;;;;;;288.10;16.77;;;5.20;99.90;;;;;;5070383;28;20205;-93
2022/01/16 09:30:49;;;;;;;316.10;19.40;;;5.20;99.90;;;;;;5064317;28;20295;-92
2022/01/16 09:33:22;;;;;;;244.37;15.47;;;5.20;99.90;;;;;;5057902;28;20235;-93
2022/01/16 09:35:54;;;;;;;139.90;11.30;;;5.20;99.90;;;;;;5058026;28;20262;-93
2022/01/16 09:38:25;;;;;;;109.87;11.50;;;5.10;99.90;;;;;;5057587;28;20294;-93
2022/01/16 09:40:57;;;;;;;170.53;13.00;;;5.10;99.90;;;;;;5058327;28;20257;-93
2022/01/16 09:43:29;;;;;;;121.73;10.20;;;5.10;99.90;;;;;;5057797;28;20658;-94
2022/01/16 09:46:01;;;;;;;138.43;12.93;;;5.20;99.90;;;;;;5057851;28;20254;-93
2022/01/16 09:48:34;;;;;;;113.90;10.57;;;5.10;99.90;;;;;;5057765;28;20252;-92
2022/01/16 09:51:05;;;;;;;181.17;12.27;;;5.10;99.90;;;;;;5058235;28;20283;-93
2022/01/16 09:53:36;;;;;;;127.17;10.50;;;5.10;99.90;;;;;;5060304;28;20272;-93
2022/01/16 09:56:07;;;;;;;107.17;10.13;;;5.10;99.90;;;;;;5058269;28;20240;-92
2022/01/16 09:58:39;;;;;;;217.50;18.00;;;5.10;99.90;;;;;;5061729;28;20212;-93
2022/01/16 10:01:11;;;;;;;140.33;11.97;;;5.10;99.90;;;;;;5065799;28;20200;-91
2022/01/16 10:03:47;;;;;;;125.20;12.97;;;5.10;99.90;;;;;;5063001;28;20214;-92
2022/01/16 10:06:21;;;;;;;148.53;13.27;;;5.00;99.90;;;;;;5058956;28;20208;-93
2022/01/16 10:08:54;;;;;;;193.87;13.60;;;5.00;99.90;;;;;;5058197;28;20743;-92
2022/01/16 10:11:29;;;;;;;45.40;8.37;;;5.00;99.90;;;;;;5061707;28;20266;-92
2022/01/16 10:14:04;;;;;;;142.50;11.57;;;5.00;99.90;;;;;;5060788;28;20232;-92
2022/01/16 10:16:38;;;;;;;160.93;11.93;;;5.00;99.90;;;;;;5076785;28;20211;-94
2022/01/16 10:19:22;;;;;;;65.57;9.43;;;5.10;99.90;;;;;;5078476;28;20204;-91
2022/01/16 10:21:54;;;;;;;89.00;9.00;;;5.10;99.90;;;;;;5078019;28;20208;-93
2022/01/16 10:24:27;;;;;;;174.70;15.00;;;5.10;99.90;;;;;;5078726;28;20192;-92
2022/01/16 10:27:17;;;;;;;150.50;12.90;;;5.10;99.90;;;;;;5078437;28;20391;-94
2022/01/16 10:29:52;;;;;;;214.90;15.30;;;5.00;99.90;;;;;;5078964;28;20211;-93
2022/01/16 10:32:25;;;;;;;132.23;10.63;;;5.00;99.90;;;;;;5077391;28;20230;-93
2022/01/16 10:35:11;;;;;;;95.10;9.77;;;5.00;99.90;;;;;;5077743;28;20295;-92
2022/01/16 10:37:45;;;;;;;298.20;19.90;;;4.90;99.90;;;;;;5073963;28;20211;-92
2022/01/16 10:40:18;;;;;;;239.07;15.13;;;4.90;99.90;;;;;;5105506;23;20247;-93
2022/01/16 10:42:52;;;;;;;188.50;12.90;;;5.00;99.90;;;;;;5073516;28;20196;-97
2022/01/16 10:45:27;;;;;;;179.37;11.90;;;5.00;99.90;;;;;;5075839;28;20200;-94
2022/01/16 10:47:59;;;;;;;115.20;10.77;;;5.00;99.90;;;;;;5074853;28;20207;-92
2022/01/16 10:50:38;;;;;;;83.50;8.97;;;5.00;99.90;;;;;;5076123;28;20199;-93
2022/01/16 10:53:11;;;;;;;94.23;10.07;;;5.00;99.90;;;;;;5072408;28;20235;-93
2022/01/16 10:55:46;;;;;;;139.57;11.50;;;5.00;99.90;;;;;;5072172;28;20254;-92
2022/01/16 10:58:20;;;;;;;32.33;7.20;;;4.90;99.90;;;;;;5068815;28;20200;-92
2022/01/16 11:00:54;;;;;;;77.33;10.03;;;4.90;99.90;;;;;;5070133;28;20212;-92
2022/01/16 11:03:26;;;;;;;71.23;8.20;;;4.90;99.90;;;;;;5071052;28;20257;-93
2022/01/16 11:06:00;;;;;;;75.23;8.47;;;4.90;99.90;;;;;;5070358;28;20200;-93
2022/01/16 11:08:31;;;;;;;85.83;9.23;;;4.90;99.90;;;;;;5067759;28;20212;-92
2022/01/16 11:11:03;;;;;;;88.30;10.00;;;4.90;99.90;;;;;;5068481;28;20208;-92
2022/01/16 11:13:36;;;;;;;53.77;8.57;;;4.90;99.90;;;;;;5064324;28;20220;-93
2022/01/16 11:16:11;;;;;;;97.50;12.47;;;4.80;99.90;;;;;;5065223;28;20626;-92
2022/01/16 11:18:47;;;;;;;73.80;8.67;;;4.90;99.90;;;;;;5063607;28;20196;-93
2022/01/16 11:21:31;;;;;;;69.90;8.00;;;4.80;99.90;;;;;;5062533;28;20273;-93
2022/01/16 11:24:23;;;;;;;68.07;8.43;;;4.90;99.90;;;;;;5068843;28;20204;-93
2022/01/16 11:26:59;;;;;;;42.97;6.50;;;4.90;99.90;;;;;;5073021;28;20214;-90
2022/01/16 11:29:30;;;;;;;54.97;7.23;;;4.80;99.90;;;;;;5073534;28;20208;-92
2022/01/16 11:32:02;;;;;;;34.80;6.67;;;4.80;99.90;;;;;;5077149;28;20196;-93
2022/01/16 11:34:33;;;;;;;32.33;6.40;;;4.70;99.90;;;;;;5075458;28;20231;-93
2022/01/16 11:37:07;;;;;;;45.37;6.90;;;4.70;99.90;;;;;;5072207;28;20204;-92
2022/01/16 11:39:39;;;;;;;62.17;7.83;;;4.70;99.90;;;;;;5075417;28;20229;-93
2022/01/16 11:42:24;;;;;;;190.50;11.47;;;4.70;99.90;;;;;;5070169;28;20219;-93
2022/01/16 11:44:56;;;;;;;98.37;9.53;;;4.70;99.90;;;;;;5063165;28;20208;-92
2022/01/16 11:47:27;;;;;;;101.47;8.77;;;4.70;99.90;;;;;;5060191;28;20216;-93
2022/01/16 11:50:10;;;;;;;105.10;9.10;;;4.70;99.90;;;;;;5059332;28;20204;-92
2022/01/16 11:52:44;;;;;;;62.43;8.70;;;4.70;99.90;;;;;;5062741;28;20209;-94
2022/01/16 11:55:14;;;;;;;40.47;7.93;;;4.70;99.90;;;;;;5063798;28;20243;-93
2022/01/16 11:57:58;;;;;;;53.10;8.70;;;4.70;99.90;;;;;;5058707;28;20205;-93
2022/01/16 12:00:44;;;;;;;63.63;8.23;;;4.70;99.90;;;;;;5059107;28;20231;-94
2022/01/16 12:03:37;;;;;;;52.63;9.40;;;4.70;99.90;;;;;;5058142;28;20258;-93
2022/01/16 12:06:33;;;;;;;26.20;7.23;;;4.70;99.90;;;;;;5056493;28;20239;-93
2022/01/16 12:09:13;;;;;;;116.37;9.83;;;4.70;99.90;;;;;;5056158;28;20663;-93
2022/01/16 12:11:44;;;;;;;58.80;6.83;;;4.70;99.90;;;;;;5056882;28;20208;-93
2022/01/16 12:14:15;;;;;;;43.47;6.90;;;4.60;99.90;;;;;;5056344;28;20232;-92
2022/01/16 12:16:48;;;;;;;94.70;9.80;;;4.60;99.90;;;;;;5056198;28;20204;-92
2022/01/16 12:19:48;;;;;;;110.00;9.63;;;4.60;99.90;;;;;;5057998;28;20216;-92
2022/01/16 12:22:34;;;;;;;88.90;9.37;;;4.60;99.90;;;;;;5058627;28;20219;-93
2022/01/16 12:25:08;;;;;;;33.83;7.07;;;4.60;99.90;;;;;;5057767;28;20236;-90
2022/01/16 12:27:53;;;;;;;142.60;12.43;;;4.60;99.90;;;;;;5061084;28;20613;-89
2022/01/16 12:30:42;;;;;;;34.97;6.30;;;4.60;99.90;;;;;;5061929;28;20239;-91
2022/01/16 12:33:31;;;;;;;168.47;12.40;;;4.70;99.90;;;;;;5057227;28;20208;-93
2022/01/16 12:36:16;;;;;;;110.73;11.20;;;4.70;99.90;;;;;;5063106;28;20240;-93
2022/01/16 12:39:03;;;;;;;120.30;12.53;;;4.70;99.90;;;;;;5056762;28;20235;-93
2022/01/16 12:41:41;;;;;;;175.07;12.30;;;4.60;99.90;;;;;;5055973;28;20266;-93
2022/01/16 12:44:14;;;;;;;134.40;10.30;;;4.60;99.90;;;;;;5055788;28;20291;-94
2022/01/16 12:46:46;;;;;;;49.87;7.07;;;4.50;99.90;;;;;;5054446;28;20203;-94
2022/01/16 12:49:19;;;;;;;60.83;6.57;;;4.50;99.90;;;;;;5056503;28;20234;-93
2022/01/16 12:51:52;;;;;;;35.60;7.87;;;4.50;99.90;;;;;;5055561;28;20204;-93
2022/01/16 12:54:25;;;;;;;61.47;7.77;;;4.50;99.90;;;;;;5056078;28;20324;-93
2022/01/16 12:56:59;;;;;;;66.00;7.30;;;4.50;99.90;;;;;;5059665;28;20223;-93
2022/01/16 12:59:45;;;;;;;27.90;5.93;;;4.40;99.90;;;;;;5060126;28;20357;-92
2022/01/16 13:02:17;;;;;;;86.90;8.83;;;4.40;99.90;;;;;;5060879;28;20294;-93
2022/01/16 13:04:49;;;;;;;62.33;8.30;;;4.40;99.90;;;;;;5058427;28;20675;-91
2022/01/16 13:07:42;;;;;;;135.03;9.37;;;4.40;99.90;;;;;;5045464;28;20204;-93
2022/01/16 13:10:13;;;;;;;40.13;6.90;;;4.50;99.90;;;;;;5059949;28;20234;-93
2022/01/16 13:12:46;;;;;;;218.63;11.73;;;4.50;99.90;;;;;;5060605;28;20223;-93
2022/01/16 13:15:23;;;;;;;34.03;7.00;;;4.50;99.90;;;;;;5060057;28;20635;-93
2022/01/16 13:17:54;;;;;;;39.77;6.10;;;4.50;99.90;;;;;;5058228;28;20200;-92
2022/01/16 13:20:27;;;;;;;54.93;7.47;;;4.50;99.90;;;;;;5060045;28;20204;-93
2022/01/16 13:22:59;;;;;;;75.70;7.83;;;4.50;99.90;;;;;;5062314;28;20239;-93
2022/01/16 13:25:30;;;;;;;27.13;5.80;;;4.40;99.90;;;;;;5059360;28;20231;-92
2022/01/16 13:28:03;;;;;;;15.13;5.40;;;4.40;99.90;;;;;;5058805;28;20266;-92
2022/01/16 13:30:36;;;;;;;20.10;4.80;;;4.50;99.90;;;;;;5056431;28;20735;-93
2022/01/16 13:33:08;;;;;;;45.57;5.90;;;4.50;99.90;;;;;;5059044;28;20212;-93
2022/01/16 13:35:40;;;;;;;38.63;6.40;;;4.40;99.90;;;;;;5059029;28;20725;-94
2022/01/16 13:38:15;;;;;;;48.87;6.40;;;4.40;99.90;;;;;;5058242;28;20208;-94
2022/01/16 13:40:47;;;;;;;25.13;5.13;;;4.40;99.90;;;;;;5059787;28;20219;-93
2022/01/16 13:43:22;;;;;;;100.33;9.03;;;4.40;99.90;;;;;;5059172;28;20243;-93
2022/01/16 13:45:53;;;;;;;61.37;7.10;;;4.40;99.90;;;;;;5067000;28;20231;-94
2022/01/16 13:48:25;;;;;;;217.13;12.13;;;4.40;99.90;;;;;;5069149;28;20211;-94
2022/01/16 13:51:00;;;;;;;153.47;11.03;;;4.40;99.90;;;;;;5078793;28;20207;-93
2022/01/16 13:53:40;;;;;;;98.97;8.03;;;4.40;99.90;;;;;;5079315;28;20196;-94
2022/01/16 13:56:15;;;;;;;218.67;14.30;;;4.30;99.90;;;;;;5079388;28;20232;-93